sensor_id;sensor_type;location;lat;lon;timestamp;temperature;humidity
33827;DHT22;20128;45.582;5.298;2023-04-29T00:00:48;20.20;77.30
33827;DHT22;20128;45.582;5.298;2023-04-29T00:03:13;20.20;76.80
33827;DHT22;20128;45.582;5.298;2023-04-29T00:05:39;20.20;77.00
33827;DHT22;20128;45.582;5.298;2023-04-29T00:08:05;20.10;78.20
33827;DHT22;20128;45.582;5.298;2023-04-29T00:10:31;20.00;77.80
33827;DHT22;20128;45.582;5.298;2023-04-29T00:12:57;19.80;78.50
33827;DHT22;20128;45.582;5.298;2023-04-29T00:15:22;19.70;78.80
33827;DHT22;20128;45.582;5.298;2023-04-29T00:17:48;19.60;79.50
33827;DHT22;20128;45.582;5.298;2023-04-29T00:20:13;19.40;80.20
33827;DHT22;20128;45.582;5.298;2023-04-29T00:22:39;19.30;81.30
33827;DHT22;20128;45.582;5.298;2023-04-29T00:25:05;19.30;81.10
33827;DHT22;20128;45.582;5.298;2023-04-29T00:27:31;19.30;81.70
33827;DHT22;20128;45.582;5.298;2023-04-29T00:29:57;19.20;82.00
33827;DHT22;20128;45.582;5.298;2023-04-29T00:32:23;19.20;82.00
33827;DHT22;20128;45.582;5.298;2023-04-29T00:34:49;19.10;82.30
33827;DHT22;20128;45.582;5.298;2023-04-29T00:37:15;19.10;82.30
33827;DHT22;20128;45.582;5.298;2023-04-29T00:39:40;19.20;82.10
33827;DHT22;20128;45.582;5.298;2023-04-29T00:42:07;19.40;81.70
33827;DHT22;20128;45.582;5.298;2023-04-29T00:44:33;19.40;81.60
33827;DHT22;20128;45.582;5.298;2023-04-29T00:46:59;19.50;81.40
33827;DHT22;20128;45.582;5.298;2023-04-29T00:49:25;19.60;81.40
33827;DHT22;20128;45.582;5.298;2023-04-29T00:51:52;19.60;81.10
33827;DHT22;20128;45.582;5.298;2023-04-29T00:54:19;19.70;80.70
33827;DHT22;20128;45.582;5.298;2023-04-29T00:56:45;19.60;80.80
33827;DHT22;20128;45.582;5.298;2023-04-29T00:59:11;19.60;80.80
33827;DHT22;20128;45.582;5.298;2023-04-29T01:01:40;19.40;81.00
33827;DHT22;20128;45.582;5.298;2023-04-29T01:04:06;19.40;81.60
33827;DHT22;20128;45.582;5.298;2023-04-29T01:12:19;19.30;81.70
33827;DHT22;20128;45.582;5.298;2023-04-29T01:14:53;19.40;81.70
33827;DHT22;20128;45.582;5.298;2023-04-29T01:17:22;19.40;81.50
33827;DHT22;20128;45.582;5.298;2023-04-29T01:19:53;19.50;81.40
33827;DHT22;20128;45.582;5.298;2023-04-29T01:22:20;19.50;81.10
33827;DHT22;20128;45.582;5.298;2023-04-29T01:24:46;19.50;81.10
33827;DHT22;20128;45.582;5.298;2023-04-29T01:30:00;19.50;81.40
33827;DHT22;20128;45.582;5.298;2023-04-29T01:35:55;19.60;80.70
33827;DHT22;20128;45.582;5.298;2023-04-29T01:38:44;19.60;80.70
33827;DHT22;20128;45.582;5.298;2023-04-29T01:41:18;19.70;80.90
33827;DHT22;20128;45.582;5.298;2023-04-29T01:43:50;19.70;80.60
33827;DHT22;20128;45.582;5.298;2023-04-29T01:46:17;19.80;80.50
33827;DHT22;20128;45.582;5.298;2023-04-29T01:48:44;19.80;80.50
33827;DHT22;20128;45.582;5.298;2023-04-29T01:51:09;19.90;80.40
33827;DHT22;20128;45.582;5.298;2023-04-29T01:53:36;19.90;79.90
33827;DHT22;20128;45.582;5.298;2023-04-29T01:56:01;19.90;79.80
33827;DHT22;20128;45.582;5.298;2023-04-29T01:58:27;19.90;80.00
33827;DHT22;20128;45.582;5.298;2023-04-29T02:00:53;19.90;79.80
33827;DHT22;20128;45.582;5.298;2023-04-29T02:03:19;19.90;79.80
33827;DHT22;20128;45.582;5.298;2023-04-29T02:05:45;19.80;79.60
33827;DHT22;20128;45.582;5.298;2023-04-29T02:08:11;19.70;80.00
33827;DHT22;20128;45.582;5.298;2023-04-29T02:10:37;19.70;80.30
33827;DHT22;20128;45.582;5.298;2023-04-29T02:13:03;19.60;80.20
33827;DHT22;20128;45.582;5.298;2023-04-29T02:15:28;19.60;80.90
33827;DHT22;20128;45.582;5.298;2023-04-29T02:17:54;19.50;81.10
33827;DHT22;20128;45.582;5.298;2023-04-29T02:20:20;19.50;81.30
33827;DHT22;20128;45.582;5.298;2023-04-29T02:22:45;19.50;81.60
33827;DHT22;20128;45.582;5.298;2023-04-29T02:25:11;19.50;81.50
33827;DHT22;20128;45.582;5.298;2023-04-29T02:27:37;19.50;81.60
33827;DHT22;20128;45.582;5.298;2023-04-29T02:30:03;19.50;81.80
33827;DHT22;20128;45.582;5.298;2023-04-29T02:32:29;19.40;81.70
33827;DHT22;20128;45.582;5.298;2023-04-29T02:34:55;19.40;81.90
33827;DHT22;20128;45.582;5.298;2023-04-29T02:37:21;19.40;82.80
33827;DHT22;20128;45.582;5.298;2023-04-29T02:39:47;19.40;82.20
33827;DHT22;20128;45.582;5.298;2023-04-29T02:42:13;19.40;82.30
33827;DHT22;20128;45.582;5.298;2023-04-29T02:44:38;19.30;82.50
33827;DHT22;20128;45.582;5.298;2023-04-29T02:47:04;19.30;82.70
33827;DHT22;20128;45.582;5.298;2023-04-29T02:49:30;19.20;82.90
33827;DHT22;20128;45.582;5.298;2023-04-29T02:51:55;19.20;83.30
33827;DHT22;20128;45.582;5.298;2023-04-29T02:54:23;19.10;83.80
33827;DHT22;20128;45.582;5.298;2023-04-29T02:56:48;19.20;83.90
33827;DHT22;20128;45.582;5.298;2023-04-29T02:59:14;19.20;83.70
33827;DHT22;20128;45.582;5.298;2023-04-29T03:01:40;19.30;83.60
33827;DHT22;20128;45.582;5.298;2023-04-29T03:04:06;19.30;83.50
33827;DHT22;20128;45.582;5.298;2023-04-29T03:06:32;19.30;83.30
33827;DHT22;20128;45.582;5.298;2023-04-29T03:08:57;19.30;83.40
33827;DHT22;20128;45.582;5.298;2023-04-29T03:11:23;19.30;83.60
33827;DHT22;20128;45.582;5.298;2023-04-29T03:13:49;19.30;83.50
33827;DHT22;20128;45.582;5.298;2023-04-29T03:16:15;19.30;83.40
33827;DHT22;20128;45.582;5.298;2023-04-29T03:18:42;19.30;83.60
33827;DHT22;20128;45.582;5.298;2023-04-29T03:21:07;19.30;83.60
33827;DHT22;20128;45.582;5.298;2023-04-29T03:23:33;19.20;83.70
33827;DHT22;20128;45.582;5.298;2023-04-29T03:25:59;19.20;83.90
33827;DHT22;20128;45.582;5.298;2023-04-29T03:28:25;19.10;84.00
33827;DHT22;20128;45.582;5.298;2023-04-29T03:30:51;19.10;84.30
33827;DHT22;20128;45.582;5.298;2023-04-29T03:33:17;19.00;84.30
33827;DHT22;20128;45.582;5.298;2023-04-29T03:35:43;18.80;84.30
33827;DHT22;20128;45.582;5.298;2023-04-29T03:38:10;18.70;84.60
33827;DHT22;20128;45.582;5.298;2023-04-29T03:40:36;18.70;84.70
33827;DHT22;20128;45.582;5.298;2023-04-29T03:43:02;18.70;84.60
33827;DHT22;20128;45.582;5.298;2023-04-29T03:45:28;18.80;84.90
33827;DHT22;20128;45.582;5.298;2023-04-29T03:47:53;18.90;84.80
33827;DHT22;20128;45.582;5.298;2023-04-29T03:50:19;18.90;84.80
33827;DHT22;20128;45.582;5.298;2023-04-29T03:52:45;18.90;84.60
33827;DHT22;20128;45.582;5.298;2023-04-29T03:55:11;19.00;84.30
33827;DHT22;20128;45.582;5.298;2023-04-29T03:57:37;19.00;84.40
33827;DHT22;20128;45.582;5.298;2023-04-29T04:00:04;19.00;84.70
33827;DHT22;20128;45.582;5.298;2023-04-29T04:02:29;19.00;84.90
33827;DHT22;20128;45.582;5.298;2023-04-29T04:04:55;19.00;84.70
33827;DHT22;20128;45.582;5.298;2023-04-29T04:07:21;19.00;84.60
33827;DHT22;20128;45.582;5.298;2023-04-29T04:09:46;19.00;84.50
33827;DHT22;20128;45.582;5.298;2023-04-29T04:12:12;18.90;84.50
33827;DHT22;20128;45.582;5.298;2023-04-29T04:14:38;18.80;84.80
33827;DHT22;20128;45.582;5.298;2023-04-29T04:17:03;18.80;84.80
33827;DHT22;20128;45.582;5.298;2023-04-29T04:19:32;18.80;84.60
33827;DHT22;20128;45.582;5.298;2023-04-29T04:21:58;18.70;84.50
33827;DHT22;20128;45.582;5.298;2023-04-29T04:24:23;18.60;84.70
33827;DHT22;20128;45.582;5.298;2023-04-29T04:26:49;18.50;84.80
33827;DHT22;20128;45.582;5.298;2023-04-29T04:29:15;18.50;84.90
33827;DHT22;20128;45.582;5.298;2023-04-29T04:31:40;18.30;85.10
33827;DHT22;20128;45.582;5.298;2023-04-29T04:34:06;18.30;85.60
33827;DHT22;20128;45.582;5.298;2023-04-29T04:36:32;18.20;85.40
33827;DHT22;20128;45.582;5.298;2023-04-29T04:38:58;18.20;85.70
33827;DHT22;20128;45.582;5.298;2023-04-29T04:41:23;18.30;85.90
33827;DHT22;20128;45.582;5.298;2023-04-29T04:43:49;18.30;85.90
33827;DHT22;20128;45.582;5.298;2023-04-29T04:46:15;18.30;85.80
33827;DHT22;20128;45.582;5.298;2023-04-29T04:48:42;18.40;85.90
33827;DHT22;20128;45.582;5.298;2023-04-29T04:51:12;18.40;85.70
33827;DHT22;20128;45.582;5.298;2023-04-29T04:53:38;18.40;85.60
33827;DHT22;20128;45.582;5.298;2023-04-29T04:56:05;18.50;85.90
33827;DHT22;20128;45.582;5.298;2023-04-29T04:58:32;18.50;85.90
33827;DHT22;20128;45.582;5.298;2023-04-29T05:00:58;18.40;85.80
33827;DHT22;20128;45.582;5.298;2023-04-29T05:03:24;18.40;86.00
33827;DHT22;20128;45.582;5.298;2023-04-29T05:05:57;18.50;86.20
33827;DHT22;20128;45.582;5.298;2023-04-29T05:08:23;18.50;86.30
33827;DHT22;20128;45.582;5.298;2023-04-29T05:10:49;18.50;86.50
33827;DHT22;20128;45.582;5.298;2023-04-29T05:13:16;18.60;86.30
33827;DHT22;20128;45.582;5.298;2023-04-29T05:15:41;18.60;86.00
33827;DHT22;20128;45.582;5.298;2023-04-29T05:18:07;18.60;85.70
33827;DHT22;20128;45.582;5.298;2023-04-29T05:20:33;18.60;85.70
33827;DHT22;20128;45.582;5.298;2023-04-29T05:22:58;18.50;85.60
33827;DHT22;20128;45.582;5.298;2023-04-29T05:25:24;18.40;86.30
33827;DHT22;20128;45.582;5.298;2023-04-29T05:27:50;18.20;86.30
33827;DHT22;20128;45.582;5.298;2023-04-29T05:30:16;18.10;86.80
33827;DHT22;20128;45.582;5.298;2023-04-29T05:32:43;18.20;86.90
33827;DHT22;20128;45.582;5.298;2023-04-29T05:35:10;18.20;86.60
33827;DHT22;20128;45.582;5.298;2023-04-29T05:37:36;18.20;86.60
33827;DHT22;20128;45.582;5.298;2023-04-29T05:40:01;18.00;86.90
33827;DHT22;20128;45.582;5.298;2023-04-29T05:42:27;18.00;87.20
33827;DHT22;20128;45.582;5.298;2023-04-29T05:44:53;18.00;87.30
33827;DHT22;20128;45.582;5.298;2023-04-29T05:47:20;18.00;87.10
33827;DHT22;20128;45.582;5.298;2023-04-29T05:49:46;17.80;87.60
33827;DHT22;20128;45.582;5.298;2023-04-29T05:52:12;17.80;88.00
33827;DHT22;20128;45.582;5.298;2023-04-29T05:54:38;17.90;88.40
33827;DHT22;20128;45.582;5.298;2023-04-29T05:57:04;18.00;88.40
33827;DHT22;20128;45.582;5.298;2023-04-29T05:59:30;18.20;88.20
33827;DHT22;20128;45.582;5.298;2023-04-29T06:01:57;18.30;87.80
33827;DHT22;20128;45.582;5.298;2023-04-29T06:04:23;18.40;87.60
33827;DHT22;20128;45.582;5.298;2023-04-29T06:06:53;18.40;87.40
33827;DHT22;20128;45.582;5.298;2023-04-29T06:09:19;18.50;87.40
33827;DHT22;20128;45.582;5.298;2023-04-29T06:11:46;18.60;87.20
33827;DHT22;20128;45.582;5.298;2023-04-29T06:14:11;18.50;86.90
33827;DHT22;20128;45.582;5.298;2023-04-29T06:16:38;18.60;87.10
33827;DHT22;20128;45.582;5.298;2023-04-29T06:19:04;18.60;87.20
33827;DHT22;20128;45.582;5.298;2023-04-29T06:21:29;18.70;87.20
33827;DHT22;20128;45.582;5.298;2023-04-29T06:23:56;18.80;87.10
33827;DHT22;20128;45.582;5.298;2023-04-29T06:26:22;18.80;87.00
33827;DHT22;20128;45.582;5.298;2023-04-29T06:28:47;18.90;87.00
33827;DHT22;20128;45.582;5.298;2023-04-29T06:31:13;18.90;86.50
33827;DHT22;20128;45.582;5.298;2023-04-29T06:33:39;18.90;86.50
33827;DHT22;20128;45.582;5.298;2023-04-29T06:36:04;18.90;86.50
33827;DHT22;20128;45.582;5.298;2023-04-29T06:38:30;18.90;86.50
33827;DHT22;20128;45.582;5.298;2023-04-29T06:40:56;18.80;86.40
33827;DHT22;20128;45.582;5.298;2023-04-29T06:43:25;18.80;86.20
33827;DHT22;20128;45.582;5.298;2023-04-29T06:45:51;18.70;86.10
33827;DHT22;20128;45.582;5.298;2023-04-29T06:48:17;18.60;86.50
33827;DHT22;20128;45.582;5.298;2023-04-29T06:50:56;18.50;86.70
33827;DHT22;20128;45.582;5.298;2023-04-29T06:53:22;18.50;86.90
33827;DHT22;20128;45.582;5.298;2023-04-29T06:55:48;18.40;87.10
33827;DHT22;20128;45.582;5.298;2023-04-29T06:58:17;18.30;87.30
33827;DHT22;20128;45.582;5.298;2023-04-29T07:00:44;18.20;87.80
33827;DHT22;20128;45.582;5.298;2023-04-29T07:03:11;18.10;88.20
33827;DHT22;20128;45.582;5.298;2023-04-29T07:05:37;18.20;88.60
33827;DHT22;20128;45.582;5.298;2023-04-29T07:08:11;18.20;88.60
33827;DHT22;20128;45.582;5.298;2023-04-29T07:10:37;18.30;88.90
33827;DHT22;20128;45.582;5.298;2023-04-29T07:13:03;18.40;89.20
33827;DHT22;20128;45.582;5.298;2023-04-29T07:15:29;18.50;88.60
33827;DHT22;20128;45.582;5.298;2023-04-29T07:17:55;18.50;88.50
33827;DHT22;20128;45.582;5.298;2023-04-29T07:20:21;18.50;88.60
33827;DHT22;20128;45.582;5.298;2023-04-29T07:22:47;18.40;88.90
33827;DHT22;20128;45.582;5.298;2023-04-29T07:25:12;18.40;89.60
33827;DHT22;20128;45.582;5.298;2023-04-29T07:27:39;18.40;89.60
33827;DHT22;20128;45.582;5.298;2023-04-29T07:30:05;18.30;89.90
33827;DHT22;20128;45.582;5.298;2023-04-29T07:32:31;18.30;90.00
33827;DHT22;20128;45.582;5.298;2023-04-29T07:35:00;18.40;90.00
33827;DHT22;20128;45.582;5.298;2023-04-29T07:37:25;18.50;90.00
33827;DHT22;20128;45.582;5.298;2023-04-29T07:39:51;18.60;89.80
33827;DHT22;20128;45.582;5.298;2023-04-29T07:42:17;18.70;89.50
33827;DHT22;20128;45.582;5.298;2023-04-29T07:44:43;18.80;89.50
33827;DHT22;20128;45.582;5.298;2023-04-29T07:47:12;18.80;89.20
33827;DHT22;20128;45.582;5.298;2023-04-29T07:49:37;18.90;89.00
33827;DHT22;20128;45.582;5.298;2023-04-29T07:52:06;18.80;89.10
33827;DHT22;20128;45.582;5.298;2023-04-29T07:54:37;18.80;88.80
33827;DHT22;20128;45.582;5.298;2023-04-29T07:57:02;18.80;88.80
33827;DHT22;20128;45.582;5.298;2023-04-29T07:59:29;18.90;89.00
33827;DHT22;20128;45.582;5.298;2023-04-29T08:01:55;19.00;89.20
33827;DHT22;20128;45.582;5.298;2023-04-29T08:04:21;19.10;89.30
33827;DHT22;20128;45.582;5.298;2023-04-29T08:06:47;19.20;89.10
33827;DHT22;20128;45.582;5.298;2023-04-29T08:09:14;19.20;89.20
33827;DHT22;20128;45.582;5.298;2023-04-29T08:11:40;19.30;89.50
33827;DHT22;20128;45.582;5.298;2023-04-29T08:14:06;19.40;89.50
33827;DHT22;20128;45.582;5.298;2023-04-29T08:16:33;19.40;89.80
33827;DHT22;20128;45.582;5.298;2023-04-29T08:18:58;19.50;89.40
33827;DHT22;20128;45.582;5.298;2023-04-29T08:21:24;19.60;87.70
33827;DHT22;20128;45.582;5.298;2023-04-29T08:23:50;19.60;87.50
33827;DHT22;20128;45.582;5.298;2023-04-29T08:26:16;19.70;87.90
33827;DHT22;20128;45.582;5.298;2023-04-29T08:28:42;19.80;88.10
33827;DHT22;20128;45.582;5.298;2023-04-29T08:31:07;19.90;89.70
33827;DHT22;20128;45.582;5.298;2023-04-29T08:33:40;20.00;90.00
33827;DHT22;20128;45.582;5.298;2023-04-29T08:36:06;20.10;89.20
33827;DHT22;20128;45.582;5.298;2023-04-29T08:38:33;20.10;88.70
33827;DHT22;20128;45.582;5.298;2023-04-29T08:40:58;20.00;88.70
33827;DHT22;20128;45.582;5.298;2023-04-29T08:43:26;20.00;88.30
33827;DHT22;20128;45.582;5.298;2023-04-29T08:45:52;20.00;88.40
33827;DHT22;20128;45.582;5.298;2023-04-29T08:48:18;20.00;87.80
33827;DHT22;20128;45.582;5.298;2023-04-29T08:50:44;20.00;87.70
33827;DHT22;20128;45.582;5.298;2023-04-29T08:53:12;20.10;88.50
33827;DHT22;20128;45.582;5.298;2023-04-29T08:55:43;20.10;87.40
33827;DHT22;20128;45.582;5.298;2023-04-29T08:58:13;20.10;86.90
33827;DHT22;20128;45.582;5.298;2023-04-29T09:00:40;20.10;87.10
33827;DHT22;20128;45.582;5.298;2023-04-29T09:03:30;20.10;87.20
33827;DHT22;20128;45.582;5.298;2023-04-29T09:05:59;20.10;86.80
33827;DHT22;20128;45.582;5.298;2023-04-29T09:08:26;20.00;86.70
33827;DHT22;20128;45.582;5.298;2023-04-29T09:10:52;20.00;87.20
33827;DHT22;20128;45.582;5.298;2023-04-29T09:13:25;20.00;86.90
33827;DHT22;20128;45.582;5.298;2023-04-29T09:15:51;20.00;85.00
33827;DHT22;20128;45.582;5.298;2023-04-29T09:18:45;20.00;84.60
33827;DHT22;20128;45.582;5.298;2023-04-29T09:21:19;19.90;84.80
33827;DHT22;20128;45.582;5.298;2023-04-29T09:23:50;19.90;85.40
33827;DHT22;20128;45.582;5.298;2023-04-29T09:26:16;19.90;85.80
33827;DHT22;20128;45.582;5.298;2023-04-29T09:28:42;19.80;85.50
33827;DHT22;20128;45.582;5.298;2023-04-29T09:31:10;19.80;85.50
33827;DHT22;20128;45.582;5.298;2023-04-29T09:33:52;19.80;85.00
33827;DHT22;20128;45.582;5.298;2023-04-29T09:36:51;19.80;86.30
33827;DHT22;20128;45.582;5.298;2023-04-29T09:39:22;19.80;85.60
33827;DHT22;20128;45.582;5.298;2023-04-29T09:44:17;19.80;83.90
33827;DHT22;20128;45.582;5.298;2023-04-29T09:46:43;19.70;82.90
33827;DHT22;20128;45.582;5.298;2023-04-29T09:49:23;19.70;81.80
33827;DHT22;20128;45.582;5.298;2023-04-29T09:51:56;19.70;83.00
33827;DHT22;20128;45.582;5.298;2023-04-29T09:54:24;19.70;83.20
33827;DHT22;20128;45.582;5.298;2023-04-29T09:56:51;19.70;83.50
33827;DHT22;20128;45.582;5.298;2023-04-29T09:59:18;19.80;84.70
33827;DHT22;20128;45.582;5.298;2023-04-29T10:01:49;19.80;85.30
33827;DHT22;20128;45.582;5.298;2023-04-29T10:04:17;19.80;84.90
33827;DHT22;20128;45.582;5.298;2023-04-29T10:06:44;19.90;84.10
33827;DHT22;20128;45.582;5.298;2023-04-29T10:09:14;19.90;84.20
33827;DHT22;20128;45.582;5.298;2023-04-29T10:11:41;19.80;84.90
33827;DHT22;20128;45.582;5.298;2023-04-29T10:14:11;19.90;85.20
33827;DHT22;20128;45.582;5.298;2023-04-29T10:16:45;19.90;85.50
33827;DHT22;20128;45.582;5.298;2023-04-29T10:19:17;19.90;84.80
33827;DHT22;20128;45.582;5.298;2023-04-29T10:21:44;19.90;83.20
33827;DHT22;20128;45.582;5.298;2023-04-29T10:24:11;19.90;82.60
33827;DHT22;20128;45.582;5.298;2023-04-29T10:26:38;19.90;83.30
33827;DHT22;20128;45.582;5.298;2023-04-29T10:29:04;19.90;84.40
33827;DHT22;20128;45.582;5.298;2023-04-29T10:31:33;19.90;84.80
33827;DHT22;20128;45.582;5.298;2023-04-29T10:33:59;20.00;84.90
33827;DHT22;20128;45.582;5.298;2023-04-29T10:36:27;19.90;83.40
33827;DHT22;20128;45.582;5.298;2023-04-29T10:38:57;19.90;83.60
33827;DHT22;20128;45.582;5.298;2023-04-29T10:41:30;19.90;84.00
33827;DHT22;20128;45.582;5.298;2023-04-29T10:43:58;19.90;84.90
33827;DHT22;20128;45.582;5.298;2023-04-29T10:46:25;19.90;85.00
33827;DHT22;20128;45.582;5.298;2023-04-29T10:49:02;19.90;85.30
33827;DHT22;20128;45.582;5.298;2023-04-29T10:51:32;20.00;85.10
33827;DHT22;20128;45.582;5.298;2023-04-29T10:54:07;20.00;84.80
33827;DHT22;20128;45.582;5.298;2023-04-29T10:56:47;20.10;85.10
33827;DHT22;20128;45.582;5.298;2023-04-29T10:59:15;20.10;84.90
33827;DHT22;20128;45.582;5.298;2023-04-29T11:01:52;20.10;84.50
33827;DHT22;20128;45.582;5.298;2023-04-29T11:04:21;20.10;83.80
33827;DHT22;20128;45.582;5.298;2023-04-29T11:14:34;20.20;84.70
33827;DHT22;20128;45.582;5.298;2023-04-29T11:17:21;20.20;84.80
33827;DHT22;20128;45.582;5.298;2023-04-29T11:19:51;20.30;83.20
33827;DHT22;20128;45.582;5.298;2023-04-29T11:22:27;20.30;83.80
33827;DHT22;20128;45.582;5.298;2023-04-29T11:24:58;20.40;84.10
33827;DHT22;20128;45.582;5.298;2023-04-29T11:27:30;20.30;82.10
33827;DHT22;20128;45.582;5.298;2023-04-29T11:29:57;20.30;82.50
33827;DHT22;20128;45.582;5.298;2023-04-29T11:32:27;20.40;83.10
33827;DHT22;20128;45.582;5.298;2023-04-29T11:34:53;20.40;83.20
33827;DHT22;20128;45.582;5.298;2023-04-29T11:37:25;20.40;83.50
33827;DHT22;20128;45.582;5.298;2023-04-29T11:40:00;20.40;83.00
33827;DHT22;20128;45.582;5.298;2023-04-29T11:42:26;20.40;82.50
33827;DHT22;20128;45.582;5.298;2023-04-29T11:44:54;20.40;82.70
33827;DHT22;20128;45.582;5.298;2023-04-29T11:47:26;20.40;83.10
33827;DHT22;20128;45.582;5.298;2023-04-29T11:49:52;20.50;83.70
33827;DHT22;20128;45.582;5.298;2023-04-29T11:52:19;20.50;83.30
33827;DHT22;20128;45.582;5.298;2023-04-29T11:54:46;20.50;83.70
33827;DHT22;20128;45.582;5.298;2023-04-29T11:57:12;20.60;83.30
33827;DHT22;20128;45.582;5.298;2023-04-29T11:59:40;20.60;82.90
33827;DHT22;20128;45.582;5.298;2023-04-29T12:02:11;20.60;83.30
33827;DHT22;20128;45.582;5.298;2023-04-29T12:04:46;20.60;83.70
33827;DHT22;20128;45.582;5.298;2023-04-29T12:07:15;20.60;83.40
33827;DHT22;20128;45.582;5.298;2023-04-29T12:09:42;20.70;83.50
33827;DHT22;20128;45.582;5.298;2023-04-29T12:12:09;20.60;83.30
33827;DHT22;20128;45.582;5.298;2023-04-29T12:14:35;20.70;83.10
33827;DHT22;20128;45.582;5.298;2023-04-29T12:17:01;20.70;82.00
33827;DHT22;20128;45.582;5.298;2023-04-29T12:19:27;20.60;82.20
33827;DHT22;20128;45.582;5.298;2023-04-29T12:21:58;20.70;82.30
33827;DHT22;20128;45.582;5.298;2023-04-29T12:24:23;20.70;81.90
33827;DHT22;20128;45.582;5.298;2023-04-29T12:26:49;20.80;82.90
33827;DHT22;20128;45.582;5.298;2023-04-29T12:29:15;21.00;82.60
33827;DHT22;20128;45.582;5.298;2023-04-29T12:31:41;21.20;82.40
33827;DHT22;20128;45.582;5.298;2023-04-29T12:34:07;21.30;81.80
33827;DHT22;20128;45.582;5.298;2023-04-29T12:36:33;21.30;81.20
33827;DHT22;20128;45.582;5.298;2023-04-29T12:38:59;21.30;80.90
33827;DHT22;20128;45.582;5.298;2023-04-29T12:41:38;21.30;80.60
33827;DHT22;20128;45.582;5.298;2023-04-29T12:44:05;21.20;81.00
33827;DHT22;20128;45.582;5.298;2023-04-29T12:46:40;21.20;80.60
33827;DHT22;20128;45.582;5.298;2023-04-29T12:49:06;21.20;80.70
33827;DHT22;20128;45.582;5.298;2023-04-29T12:51:33;21.20;80.70
33827;DHT22;20128;45.582;5.298;2023-04-29T12:54:01;21.20;80.90
33827;DHT22;20128;45.582;5.298;2023-04-29T12:56:31;21.20;80.70
33827;DHT22;20128;45.582;5.298;2023-04-29T12:59:05;21.20;80.20
33827;DHT22;20128;45.582;5.298;2023-04-29T13:01:31;21.20;80.00
33827;DHT22;20128;45.582;5.298;2023-04-29T13:03:57;21.30;80.00
33827;DHT22;20128;45.582;5.298;2023-04-29T13:06:23;21.20;79.90
33827;DHT22;20128;45.582;5.298;2023-04-29T13:08:48;21.20;79.60
33827;DHT22;20128;45.582;5.298;2023-04-29T13:11:16;21.20;80.10
33827;DHT22;20128;45.582;5.298;2023-04-29T13:13:41;21.20;80.40
33827;DHT22;20128;45.582;5.298;2023-04-29T13:16:07;21.20;79.60
33827;DHT22;20128;45.582;5.298;2023-04-29T13:18:33;21.20;79.40
33827;DHT22;20128;45.582;5.298;2023-04-29T13:20:58;21.20;78.80
33827;DHT22;20128;45.582;5.298;2023-04-29T13:23:24;21.20;79.70
33827;DHT22;20128;45.582;5.298;2023-04-29T13:25:50;21.20;80.00
33827;DHT22;20128;45.582;5.298;2023-04-29T13:28:16;21.20;79.70
33827;DHT22;20128;45.582;5.298;2023-04-29T13:30:41;21.20;79.60
33827;DHT22;20128;45.582;5.298;2023-04-29T13:33:07;21.20;79.60
33827;DHT22;20128;45.582;5.298;2023-04-29T13:35:33;21.30;79.10
33827;DHT22;20128;45.582;5.298;2023-04-29T13:38:01;21.20;78.50
33827;DHT22;20128;45.582;5.298;2023-04-29T13:40:26;21.20;78.10
33827;DHT22;20128;45.582;5.298;2023-04-29T13:42:52;21.20;78.80
33827;DHT22;20128;45.582;5.298;2023-04-29T13:45:18;21.20;79.10
33827;DHT22;20128;45.582;5.298;2023-04-29T13:47:43;21.20;79.20
33827;DHT22;20128;45.582;5.298;2023-04-29T13:50:09;21.20;79.30
33827;DHT22;20128;45.582;5.298;2023-04-29T13:52:35;21.20;79.50
33827;DHT22;20128;45.582;5.298;2023-04-29T13:55:01;21.30;79.40
33827;DHT22;20128;45.582;5.298;2023-04-29T13:57:27;21.30;79.50
33827;DHT22;20128;45.582;5.298;2023-04-29T13:59:52;21.30;78.90
33827;DHT22;20128;45.582;5.298;2023-04-29T14:02:20;21.40;78.90
33827;DHT22;20128;45.582;5.298;2023-04-29T14:04:46;21.30;78.50
33827;DHT22;20128;45.582;5.298;2023-04-29T14:07:12;21.40;78.70
33827;DHT22;20128;45.582;5.298;2023-04-29T14:09:38;21.40;78.60
33827;DHT22;20128;45.582;5.298;2023-04-29T14:12:05;21.40;78.70
33827;DHT22;20128;45.582;5.298;2023-04-29T14:14:30;21.40;79.00
33827;DHT22;20128;45.582;5.298;2023-04-29T14:16:56;21.40;78.40
33827;DHT22;20128;45.582;5.298;2023-04-29T14:19:22;21.40;78.40
33827;DHT22;20128;45.582;5.298;2023-04-29T14:21:48;21.40;77.50
33827;DHT22;20128;45.582;5.298;2023-04-29T14:24:13;21.40;77.80
33827;DHT22;20128;45.582;5.298;2023-04-29T14:26:39;21.50;77.90
33827;DHT22;20128;45.582;5.298;2023-04-29T14:29:06;21.50;78.00
33827;DHT22;20128;45.582;5.298;2023-04-29T14:31:35;21.50;78.10
33827;DHT22;20128;45.582;5.298;2023-04-29T14:34:04;21.50;78.30
33827;DHT22;20128;45.582;5.298;2023-04-29T14:36:30;21.60;78.60
33827;DHT22;20128;45.582;5.298;2023-04-29T14:38:59;21.60;78.50
33827;DHT22;20128;45.582;5.298;2023-04-29T14:41:25;21.70;78.70
33827;DHT22;20128;45.582;5.298;2023-04-29T14:43:51;21.70;78.20
33827;DHT22;20128;45.582;5.298;2023-04-29T14:46:17;21.70;78.30
33827;DHT22;20128;45.582;5.298;2023-04-29T14:48:43;21.70;78.10
33827;DHT22;20128;45.582;5.298;2023-04-29T14:51:09;21.70;78.10
33827;DHT22;20128;45.582;5.298;2023-04-29T14:53:35;21.80;78.40
33827;DHT22;20128;45.582;5.298;2023-04-29T14:56:00;21.80;78.20
33827;DHT22;20128;45.582;5.298;2023-04-29T14:58:26;21.80;77.80
33827;DHT22;20128;45.582;5.298;2023-04-29T15:00:51;21.80;77.90
33827;DHT22;20128;45.582;5.298;2023-04-29T15:03:17;21.80;77.80
33827;DHT22;20128;45.582;5.298;2023-04-29T15:05:43;21.80;77.40
33827;DHT22;20128;45.582;5.298;2023-04-29T15:08:09;21.80;77.60
33827;DHT22;20128;45.582;5.298;2023-04-29T15:10:35;21.80;78.00
33827;DHT22;20128;45.582;5.298;2023-04-29T15:13:01;21.80;78.10
33827;DHT22;20128;45.582;5.298;2023-04-29T15:15:26;21.80;77.80
33827;DHT22;20128;45.582;5.298;2023-04-29T15:17:53;21.80;78.00
33827;DHT22;20128;45.582;5.298;2023-04-29T15:20:19;21.80;78.00
33827;DHT22;20128;45.582;5.298;2023-04-29T15:22:44;21.80;78.10
33827;DHT22;20128;45.582;5.298;2023-04-29T15:25:11;21.90;79.20
33827;DHT22;20128;45.582;5.298;2023-04-29T15:27:37;21.90;78.80
33827;DHT22;20128;45.582;5.298;2023-04-29T15:30:04;21.90;78.80
33827;DHT22;20128;45.582;5.298;2023-04-29T15:32:30;22.00;78.90
33827;DHT22;20128;45.582;5.298;2023-04-29T15:35:03;22.00;78.70
33827;DHT22;20128;45.582;5.298;2023-04-29T15:37:31;22.00;78.50
33827;DHT22;20128;45.582;5.298;2023-04-29T15:39:59;22.00;78.60
33827;DHT22;20128;45.582;5.298;2023-04-29T15:42:25;22.00;78.80
33827;DHT22;20128;45.582;5.298;2023-04-29T15:44:51;22.10;77.80
33827;DHT22;20128;45.582;5.298;2023-04-29T15:47:17;22.20;77.70
33827;DHT22;20128;45.582;5.298;2023-04-29T15:49:43;22.30;77.60
33827;DHT22;20128;45.582;5.298;2023-04-29T15:52:09;22.30;76.90